QFA410 YMML-YSSY
Flight info
| Callsign | QFA410 |
|---|---|
| Flight time | 1h 8m |
| Altitude | 41000 |
| Route | DOSEL Y59 RIVET |
| Aircraft | A332/H-SDE3GHIJ2J3J5M1RVWXY/LB2D1 |
Departure
| Time | 2026-04-26 21:26 |
|---|---|
| Airport | Melbourne Airport (YMML) |
Arrival
| Time | 2026-04-26 22:34 |
|---|---|
| Airport | Sydney Kingsford Smith International Airport (YSSY) |
| Time | Latitude | Longitude | Altitude | Speed | Heading |
|---|---|---|---|---|---|
| 2026-04-26 21:03 | -37.66828 | 144.85020 | 402 ft | 0 kts | 261° |
| 2026-04-26 21:10 | -37.66826 | 144.85033 | 401 ft | 4 kts | 261° |
| 2026-04-26 21:10 | -37.66821 | 144.85065 | 400 ft | 4 kts | 245° |
| 2026-04-26 21:11 | -37.66806 | 144.85086 | 402 ft | 3 kts | 185° |
| 2026-04-26 21:11 | -37.66782 | 144.85088 | 398 ft | 4 kts | 182° |
| 2026-04-26 21:11 | -37.66755 | 144.85089 | 400 ft | 4 kts | 178° |
| 2026-04-26 21:11 | -37.66731 | 144.85086 | 399 ft | 1 kts | 172° |
| 2026-04-26 21:12 | -37.66707 | 144.85082 | 399 ft | 4 kts | 172° |
| 2026-04-26 21:12 | -37.66680 | 144.85077 | 402 ft | 4 kts | 171° |
| 2026-04-26 21:12 | -37.66654 | 144.85072 | 402 ft | 4 kts | 171° |
| 2026-04-26 21:12 | -37.66629 | 144.85068 | 405 ft | 4 kts | 182° |
| 2026-04-26 21:13 | -37.66605 | 144.85076 | 405 ft | 4 kts | 225° |
| 2026-04-26 21:13 | -37.66592 | 144.85104 | 401 ft | 4 kts | 255° |
| 2026-04-26 21:13 | -37.66587 | 144.85138 | 406 ft | 4 kts | 262° |
| 2026-04-26 21:13 | -37.66586 | 144.85145 | 406 ft | 0 kts | 261° |
| 2026-04-26 21:17 | -37.66587 | 144.85141 | 406 ft | 1 kts | 262° |
| 2026-04-26 21:17 | -37.66587 | 144.85137 | 406 ft | 0 kts | 264° |
| 2026-04-26 21:19 | -37.66588 | 144.85124 | 406 ft | 4 kts | 264° |
| 2026-04-26 21:19 | -37.66588 | 144.85097 | 405 ft | 2 kts | 277° |
| 2026-04-26 21:19 | -37.66576 | 144.85075 | 407 ft | 3 kts | 312° |
| 2026-04-26 21:19 | -37.66544 | 144.85054 | 409 ft | 8 kts | 343° |
| 2026-04-26 21:20 | -37.66486 | 144.85039 | 406 ft | 8 kts | 343° |
| 2026-04-26 21:20 | -37.66451 | 144.84984 | 410 ft | 12 kts | 279° |
| 2026-04-26 21:20 | -37.66463 | 144.84850 | 406 ft | 16 kts | 261° |
| 2026-04-26 21:20 | -37.66479 | 144.84715 | 406 ft | 16 kts | 261° |
| 2026-04-26 21:21 | -37.66496 | 144.84572 | 409 ft | 17 kts | 261° |
| 2026-04-26 21:21 | -37.66514 | 144.84421 | 408 ft | 18 kts | 262° |
| 2026-04-26 21:21 | -37.66532 | 144.84266 | 407 ft | 18 kts | 266° |
| 2026-04-26 21:21 | -37.66524 | 144.84117 | 407 ft | 17 kts | 274° |
| 2026-04-26 21:22 | -37.66513 | 144.83972 | 408 ft | 16 kts | 285° |
| 2026-04-26 21:22 | -37.66439 | 144.83917 | 410 ft | 11 kts | 352° |
| 2026-04-26 21:22 | -37.66362 | 144.83902 | 407 ft | 16 kts | 352° |
| 2026-04-26 21:23 | -37.66047 | 144.83845 | 412 ft | 26 kts | 351° |
| 2026-04-26 21:23 | -37.65875 | 144.83812 | 418 ft | 25 kts | 351° |
| 2026-04-26 21:23 | -37.65711 | 144.83782 | 422 ft | 22 kts | 352° |
| 2026-04-26 21:23 | -37.65602 | 144.83756 | 418 ft | 10 kts | 329° |
| 2026-04-26 21:24 | -37.65584 | 144.83697 | 428 ft | 6 kts | 271° |
| 2026-04-26 21:24 | -37.65592 | 144.83638 | 428 ft | 9 kts | 256° |
| 2026-04-26 21:24 | -37.65639 | 144.83566 | 425 ft | 13 kts | 207° |
| 2026-04-26 21:24 | -37.65709 | 144.83564 | 425 ft | 0 kts | 172° |
| 2026-04-26 21:25 | -37.65717 | 144.83565 | 424 ft | 8 kts | 172° |
| 2026-04-26 21:25 | -37.65958 | 144.83608 | 418 ft | 64 kts | 172° |
| 2026-04-26 21:25 | -37.66585 | 144.83726 | 405 ft | 122 kts | 172° |
| 2026-04-26 21:25 | -37.67632 | 144.83921 | 402 ft | 177 kts | 173° |
| 2026-04-26 21:26 | -37.68895 | 144.84174 | 940 ft | 185 kts | 172° |
| 2026-04-26 21:26 | -37.70124 | 144.84401 | 1677 ft | 172 kts | 172° |
| 2026-04-26 21:26 | -37.71309 | 144.84621 | 2151 ft | 176 kts | 171° |
| 2026-04-26 21:26 | -37.72578 | 144.84827 | 2340 ft | 196 kts | 177° |
| 2026-04-26 21:27 | -37.73936 | 144.84329 | 2458 ft | 220 kts | 217° |
| 2026-04-26 21:27 | -37.74793 | 144.82640 | 2582 ft | 245 kts | 258° |
| 2026-04-26 21:27 | -37.74803 | 144.80414 | 3005 ft | 258 kts | 276° |
| 2026-04-26 21:27 | -37.74626 | 144.78190 | 3765 ft | 257 kts | 276° |
| 2026-04-26 21:28 | -37.74498 | 144.75948 | 4641 ft | 253 kts | 274° |
| 2026-04-26 21:28 | -37.74390 | 144.73737 | 5471 ft | 251 kts | 280° |
| 2026-04-26 21:28 | -37.73659 | 144.71761 | 6181 ft | 253 kts | 314° |
| 2026-04-26 21:28 | -37.72122 | 144.70695 | 6899 ft | 259 kts | 348° |
| 2026-04-26 21:29 | -37.70320 | 144.70955 | 7591 ft | 270 kts | 21° |
| 2026-04-26 21:29 | -37.68720 | 144.72263 | 8295 ft | 277 kts | 33° |
| 2026-04-26 21:29 | -37.67140 | 144.73634 | 9006 ft | 280 kts | 29° |
| 2026-04-26 21:29 | -37.65438 | 144.74870 | 9719 ft | 283 kts | 24° |
| 2026-04-26 21:30 | -37.63656 | 144.75979 | 10320 ft | 291 kts | 21° |
| 2026-04-26 21:30 | -37.61748 | 144.77046 | 10579 ft | 309 kts | 20° |
| 2026-04-26 21:30 | -37.59701 | 144.78118 | 10810 ft | 328 kts | 19° |
| 2026-04-26 21:30 | -37.57526 | 144.79212 | 11164 ft | 341 kts | 18° |
| 2026-04-26 21:31 | -37.55369 | 144.80537 | 11688 ft | 351 kts | 34° |
| 2026-04-26 21:31 | -37.53414 | 144.82427 | 12278 ft | 356 kts | 35° |
| 2026-04-26 21:31 | -37.51459 | 144.84308 | 12889 ft | 359 kts | 36° |
| 2026-04-26 21:31 | -37.49447 | 144.86233 | 13488 ft | 364 kts | 36° |
| 2026-04-26 21:32 | -37.47407 | 144.88158 | 14076 ft | 368 kts | 36° |
| 2026-04-26 21:32 | -37.45340 | 144.90090 | 14585 ft | 372 kts | 36° |
| 2026-04-26 21:32 | -37.43256 | 144.92004 | 15052 ft | 377 kts | 40° |
| 2026-04-26 21:32 | -37.41541 | 144.94521 | 15534 ft | 381 kts | 57° |
| 2026-04-26 21:33 | -37.40097 | 144.97352 | 16060 ft | 385 kts | 58° |
| 2026-04-26 21:33 | -37.38635 | 145.00205 | 16570 ft | 389 kts | 58° |
| 2026-04-26 21:33 | -37.37137 | 145.03024 | 17045 ft | 393 kts | 57° |
| 2026-04-26 21:33 | -37.35578 | 145.05878 | 17533 ft | 397 kts | 57° |
| 2026-04-26 21:34 | -37.33988 | 145.08738 | 18013 ft | 401 kts | 57° |
| 2026-04-26 21:34 | -37.32371 | 145.11622 | 18506 ft | 405 kts | 57° |
| 2026-04-26 21:34 | -37.30755 | 145.14488 | 18932 ft | 408 kts | 57° |
| 2026-04-26 21:34 | -37.29092 | 145.17426 | 19363 ft | 411 kts | 57° |
| 2026-04-26 21:35 | -37.27440 | 145.20339 | 19802 ft | 414 kts | 57° |
| 2026-04-26 21:35 | -37.25766 | 145.23288 | 20231 ft | 416 kts | 57° |
| 2026-04-26 21:35 | -37.24070 | 145.26269 | 20653 ft | 419 kts | 57° |
| 2026-04-26 21:35 | -37.22366 | 145.29262 | 21092 ft | 422 kts | 57° |
| 2026-04-26 21:36 | -37.20673 | 145.32233 | 21520 ft | 424 kts | 57° |
| 2026-04-26 21:36 | -37.19509 | 145.34273 | 21790 ft | 426 kts | 57° |
| 2026-04-26 21:36 | -37.17207 | 145.38306 | 22344 ft | 429 kts | 57° |
| 2026-04-26 21:36 | -37.15462 | 145.41360 | 22755 ft | 431 kts | 57° |
| 2026-04-26 21:37 | -37.13709 | 145.44424 | 23162 ft | 433 kts | 56° |
| 2026-04-26 21:37 | -37.11964 | 145.47468 | 23596 ft | 435 kts | 56° |
| 2026-04-26 21:37 | -37.10183 | 145.50572 | 23964 ft | 438 kts | 56° |
| 2026-04-26 21:37 | -37.08423 | 145.53636 | 24269 ft | 441 kts | 56° |
| 2026-04-26 21:38 | -37.06622 | 145.56770 | 24554 ft | 444 kts | 56° |
| 2026-04-26 21:38 | -37.04811 | 145.59916 | 24862 ft | 446 kts | 56° |
| 2026-04-26 21:38 | -37.02986 | 145.63085 | 25176 ft | 449 kts | 56° |
| 2026-04-26 21:38 | -37.01178 | 145.66220 | 25471 ft | 451 kts | 56° |
| 2026-04-26 21:39 | -36.99331 | 145.69420 | 25789 ft | 453 kts | 56° |
| 2026-04-26 21:39 | -36.97479 | 145.72627 | 26073 ft | 455 kts | 56° |
| 2026-04-26 21:39 | -36.95620 | 145.75843 | 26377 ft | 457 kts | 56° |
| 2026-04-26 21:39 | -36.93749 | 145.79076 | 26684 ft | 460 kts | 56° |
| 2026-04-26 21:40 | -36.91869 | 145.82326 | 27014 ft | 461 kts | 56° |
| 2026-04-26 21:40 | -36.89985 | 145.85576 | 27323 ft | 463 kts | 56° |
| 2026-04-26 21:40 | -36.88113 | 145.88799 | 27599 ft | 465 kts | 55° |
| 2026-04-26 21:40 | -36.86211 | 145.92072 | 27891 ft | 467 kts | 55° |
| 2026-04-26 21:41 | -36.84297 | 145.95363 | 28168 ft | 469 kts | 55° |
| 2026-04-26 21:41 | -36.82373 | 145.98668 | 28433 ft | 471 kts | 55° |
| 2026-04-26 21:41 | -36.80460 | 146.01950 | 28717 ft | 473 kts | 55° |
| 2026-04-26 21:41 | -36.78521 | 146.05275 | 29000 ft | 475 kts | 55° |
| 2026-04-26 21:42 | -36.76572 | 146.08618 | 29388 ft | 473 kts | 54° |
| 2026-04-26 21:42 | -36.74629 | 146.11943 | 29705 ft | 474 kts | 54° |
| 2026-04-26 21:42 | -36.72697 | 146.15247 | 29950 ft | 477 kts | 54° |
| 2026-04-26 21:42 | -36.70738 | 146.18591 | 30187 ft | 479 kts | 54° |
| 2026-04-26 21:43 | -36.68764 | 146.21958 | 30423 ft | 481 kts | 54° |
| 2026-04-26 21:43 | -36.66781 | 146.25338 | 30616 ft | 483 kts | 54° |
| 2026-04-26 21:43 | -36.64792 | 146.28725 | 30809 ft | 485 kts | 54° |
| 2026-04-26 21:43 | -36.62790 | 146.32130 | 31011 ft | 487 kts | 54° |
| 2026-04-26 21:44 | -36.60811 | 146.35498 | 31294 ft | 487 kts | 53° |
| 2026-04-26 21:44 | -36.58803 | 146.38909 | 31494 ft | 489 kts | 53° |
| 2026-04-26 21:44 | -36.56786 | 146.42329 | 31666 ft | 491 kts | 53° |
| 2026-04-26 21:44 | -36.54763 | 146.45754 | 31851 ft | 493 kts | 53° |
| 2026-04-26 21:45 | -36.52730 | 146.49195 | 32034 ft | 494 kts | 54° |
| 2026-04-26 21:45 | -36.50683 | 146.52654 | 32298 ft | 494 kts | 54° |
| 2026-04-26 21:45 | -36.48666 | 146.56062 | 32551 ft | 494 kts | 53° |
| 2026-04-26 21:45 | -36.46628 | 146.59502 | 32819 ft | 493 kts | 54° |
| 2026-04-26 21:46 | -36.44587 | 146.62942 | 33077 ft | 493 kts | 54° |
| 2026-04-26 21:46 | -36.42546 | 146.66379 | 33325 ft | 494 kts | 54° |
| 2026-04-26 21:46 | -36.40505 | 146.69814 | 33547 ft | 494 kts | 54° |
| 2026-04-26 21:46 | -36.38464 | 146.73244 | 33793 ft | 494 kts | 54° |
| 2026-04-26 21:47 | -36.36417 | 146.76682 | 34016 ft | 494 kts | 54° |
| 2026-04-26 21:47 | -36.34396 | 146.80072 | 34247 ft | 494 kts | 54° |
| 2026-04-26 21:47 | -36.32340 | 146.83518 | 34463 ft | 494 kts | 54° |
| 2026-04-26 21:47 | -36.30297 | 146.86940 | 34707 ft | 493 kts | 54° |
| 2026-04-26 21:48 | -36.28263 | 146.90344 | 34961 ft | 491 kts | 54° |
| 2026-04-26 21:48 | -36.26229 | 146.93743 | 35165 ft | 491 kts | 54° |
| 2026-04-26 21:48 | -36.24191 | 146.97142 | 35318 ft | 491 kts | 54° |
| 2026-04-26 21:48 | -36.22176 | 147.00500 | 35468 ft | 492 kts | 54° |
| 2026-04-26 21:49 | -36.20134 | 147.03902 | 35636 ft | 492 kts | 54° |
| 2026-04-26 21:49 | -36.18086 | 147.07309 | 35818 ft | 492 kts | 54° |
| 2026-04-26 21:49 | -36.16045 | 147.10702 | 35985 ft | 492 kts | 54° |
| 2026-04-26 21:49 | -36.14015 | 147.14076 | 36217 ft | 491 kts | 54° |
| 2026-04-26 21:50 | -36.11977 | 147.17460 | 36424 ft | 490 kts | 54° |
| 2026-04-26 21:50 | -36.10601 | 147.19739 | 36528 ft | 490 kts | 54° |
| 2026-04-26 21:50 | -36.07893 | 147.24222 | 36718 ft | 490 kts | 54° |
| 2026-04-26 21:50 | -36.05844 | 147.27611 | 36876 ft | 490 kts | 54° |
| 2026-04-26 21:51 | -36.03796 | 147.30992 | 37025 ft | 491 kts | 54° |
| 2026-04-26 21:51 | -36.01750 | 147.34369 | 37174 ft | 491 kts | 54° |
| 2026-04-26 21:51 | -35.99706 | 147.37740 | 37323 ft | 491 kts | 54° |
| 2026-04-26 21:51 | -35.97679 | 147.41081 | 37508 ft | 490 kts | 54° |
| 2026-04-26 21:52 | -35.95632 | 147.44451 | 37699 ft | 489 kts | 54° |
| 2026-04-26 21:52 | -35.93586 | 147.47815 | 37834 ft | 489 kts | 54° |
| 2026-04-26 21:52 | -35.91537 | 147.51181 | 37971 ft | 489 kts | 54° |
| 2026-04-26 21:52 | -35.89520 | 147.54491 | 38084 ft | 490 kts | 54° |
| 2026-04-26 21:53 | -35.87471 | 147.57850 | 38212 ft | 490 kts | 54° |
| 2026-04-26 21:53 | -35.85423 | 147.61205 | 38346 ft | 490 kts | 54° |
| 2026-04-26 21:53 | -35.83371 | 147.64563 | 38470 ft | 490 kts | 54° |
| 2026-04-26 21:53 | -35.81321 | 147.67917 | 38619 ft | 490 kts | 54° |
| 2026-04-26 21:54 | -35.79273 | 147.71263 | 38777 ft | 489 kts | 54° |
| 2026-04-26 21:54 | -35.77228 | 147.74599 | 38932 ft | 488 kts | 54° |
| 2026-04-26 21:54 | -35.73117 | 147.81294 | 39121 ft | 488 kts | 54° |
| 2026-04-26 21:55 | -35.69042 | 147.87919 | 39295 ft | 488 kts | 54° |
| 2026-04-26 21:55 | -35.64929 | 147.94596 | 39499 ft | 487 kts | 53° |
| 2026-04-26 21:56 | -35.62907 | 147.97875 | 39651 ft | 485 kts | 53° |
| 2026-04-26 21:56 | -35.60866 | 148.01180 | 39767 ft | 484 kts | 53° |
| 2026-04-26 21:56 | -35.56776 | 148.07790 | 39900 ft | 485 kts | 53° |
| 2026-04-26 21:57 | -35.52712 | 148.14349 | 40049 ft | 485 kts | 53° |
| 2026-04-26 21:57 | -35.48624 | 148.20933 | 40290 ft | 482 kts | 53° |
| 2026-04-26 21:58 | -35.46595 | 148.24199 | 40424 ft | 480 kts | 53° |
| 2026-04-26 21:58 | -35.44567 | 148.27458 | 40505 ft | 480 kts | 53° |
| 2026-04-26 21:58 | -35.40531 | 148.33934 | 40602 ft | 480 kts | 53° |
| 2026-04-26 21:59 | -35.36468 | 148.40440 | 40709 ft | 480 kts | 53° |
| 2026-04-26 21:59 | -35.32397 | 148.46946 | 40822 ft | 480 kts | 53° |
| 2026-04-26 22:00 | -35.28321 | 148.53453 | 40894 ft | 481 kts | 52° |
| 2026-04-26 22:00 | -35.24260 | 148.59919 | 40974 ft | 482 kts | 52° |
| 2026-04-26 22:01 | -35.20153 | 148.66446 | 41061 ft | 483 kts | 52° |
| 2026-04-26 22:01 | -35.16736 | 148.71869 | 41119 ft | 483 kts | 52° |
| 2026-04-26 22:02 | -35.12617 | 148.78395 | 41199 ft | 484 kts | 52° |
| 2026-04-26 22:02 | -35.08517 | 148.84879 | 41270 ft | 485 kts | 52° |
| 2026-04-26 22:03 | -35.04382 | 148.91405 | 41344 ft | 485 kts | 52° |
| 2026-04-26 22:03 | -35.00271 | 148.97881 | 41340 ft | 487 kts | 52° |
| 2026-04-26 22:04 | -34.98190 | 149.01156 | 41022 ft | 488 kts | 52° |
| 2026-04-26 22:04 | -34.96107 | 149.04431 | 40459 ft | 490 kts | 52° |
| 2026-04-26 22:04 | -34.94014 | 149.07717 | 39873 ft | 491 kts | 52° |
| 2026-04-26 22:04 | -34.91911 | 149.11018 | 39309 ft | 493 kts | 52° |
| 2026-04-26 22:05 | -34.89795 | 149.14333 | 38685 ft | 494 kts | 52° |
| 2026-04-26 22:05 | -34.87679 | 149.17644 | 38012 ft | 495 kts | 52° |
| 2026-04-26 22:05 | -34.85560 | 149.20961 | 37360 ft | 496 kts | 52° |
| 2026-04-26 22:05 | -34.83440 | 149.24275 | 36742 ft | 496 kts | 52° |
| 2026-04-26 22:06 | -34.81314 | 149.27597 | 36127 ft | 497 kts | 52° |
| 2026-04-26 22:06 | -34.79182 | 149.30924 | 35498 ft | 498 kts | 51° |
| 2026-04-26 22:06 | -34.77054 | 149.34241 | 34894 ft | 498 kts | 51° |
| 2026-04-26 22:06 | -34.74945 | 149.37530 | 34294 ft | 498 kts | 52° |
| 2026-04-26 22:07 | -34.72986 | 149.41011 | 33611 ft | 498 kts | 58° |
| 2026-04-26 22:07 | -34.71250 | 149.44679 | 32944 ft | 498 kts | 61° |
| 2026-04-26 22:07 | -34.69644 | 149.48405 | 32300 ft | 497 kts | 63° |
| 2026-04-26 22:07 | -34.68081 | 149.52158 | 31664 ft | 496 kts | 63° |
| 2026-04-26 22:08 | -34.66523 | 149.55906 | 31035 ft | 495 kts | 63° |
| 2026-04-26 22:08 | -34.64980 | 149.59568 | 30444 ft | 489 kts | 63° |
| 2026-04-26 22:08 | -34.63427 | 149.63200 | 29753 ft | 477 kts | 62° |
| 2026-04-26 22:08 | -34.61903 | 149.66716 | 29079 ft | 465 kts | 62° |
| 2026-04-26 22:09 | -34.60402 | 149.70153 | 28405 ft | 454 kts | 62° |
| 2026-04-26 22:09 | -34.58929 | 149.73506 | 27757 ft | 444 kts | 62° |
| 2026-04-26 22:09 | -34.57489 | 149.76778 | 27132 ft | 434 kts | 62° |
| 2026-04-26 22:09 | -34.56097 | 149.79938 | 26519 ft | 426 kts | 62° |
| 2026-04-26 22:10 | -34.54710 | 149.83083 | 25903 ft | 418 kts | 62° |
| 2026-04-26 22:10 | -34.53350 | 149.86168 | 25300 ft | 412 kts | 62° |
| 2026-04-26 22:10 | -34.52005 | 149.89217 | 24723 ft | 408 kts | 62° |
| 2026-04-26 22:10 | -34.50671 | 149.92239 | 24143 ft | 405 kts | 61° |
| 2026-04-26 22:11 | -34.49347 | 149.95235 | 23501 ft | 401 kts | 62° |
| 2026-04-26 22:11 | -34.48033 | 149.98205 | 22830 ft | 397 kts | 61° |
| 2026-04-26 22:11 | -34.46733 | 150.01140 | 22176 ft | 393 kts | 61° |
| 2026-04-26 22:11 | -34.45444 | 150.04052 | 21543 ft | 389 kts | 61° |
| 2026-04-26 22:12 | -34.44188 | 150.06882 | 20914 ft | 385 kts | 61° |
| 2026-04-26 22:12 | -34.42924 | 150.09732 | 20293 ft | 381 kts | 61° |
| 2026-04-26 22:12 | -34.41673 | 150.12548 | 19689 ft | 377 kts | 61° |
| 2026-04-26 22:12 | -34.40434 | 150.15335 | 19111 ft | 374 kts | 61° |
| 2026-04-26 22:13 | -34.39209 | 150.18091 | 18516 ft | 370 kts | 61° |
| 2026-04-26 22:13 | -34.37987 | 150.20836 | 17846 ft | 367 kts | 61° |
| 2026-04-26 22:13 | -34.36782 | 150.23540 | 17198 ft | 363 kts | 61° |
| 2026-04-26 22:13 | -34.35596 | 150.26199 | 16568 ft | 361 kts | 62° |
| 2026-04-26 22:14 | -34.34405 | 150.28869 | 15942 ft | 358 kts | 62° |
| 2026-04-26 22:14 | -34.33222 | 150.31518 | 15326 ft | 355 kts | 62° |
| 2026-04-26 22:14 | -34.32064 | 150.34110 | 14729 ft | 353 kts | 62° |
| 2026-04-26 22:14 | -34.30900 | 150.36712 | 14147 ft | 351 kts | 62° |
| 2026-04-26 22:15 | -34.29741 | 150.39302 | 13497 ft | 348 kts | 62° |
| 2026-04-26 22:15 | -34.28590 | 150.41872 | 12849 ft | 345 kts | 62° |
| 2026-04-26 22:15 | -34.27446 | 150.44430 | 12217 ft | 346 kts | 62° |
| 2026-04-26 22:15 | -34.26295 | 150.47004 | 11597 ft | 349 kts | 62° |
| 2026-04-26 22:16 | -34.25151 | 150.49563 | 10988 ft | 352 kts | 62° |
| 2026-04-26 22:16 | -34.23983 | 150.52173 | 10511 ft | 351 kts | 62° |
| 2026-04-26 22:16 | -34.22836 | 150.54737 | 10338 ft | 339 kts | 62° |
| 2026-04-26 22:16 | -34.21730 | 150.57204 | 10238 ft | 330 kts | 62° |
| 2026-04-26 22:17 | -34.20638 | 150.59642 | 10050 ft | 328 kts | 62° |
| 2026-04-26 22:17 | -34.19551 | 150.62068 | 10034 ft | 329 kts | 62° |
| 2026-04-26 22:17 | -34.18470 | 150.64477 | 10028 ft | 328 kts | 62° |
| 2026-04-26 22:17 | -34.17379 | 150.66909 | 9921 ft | 329 kts | 65° |
| 2026-04-26 22:18 | -34.16296 | 150.69343 | 9602 ft | 328 kts | 62° |
| 2026-04-26 22:18 | -34.15208 | 150.71751 | 9310 ft | 326 kts | 62° |
| 2026-04-26 22:18 | -34.14137 | 150.74120 | 9019 ft | 324 kts | 62° |
| 2026-04-26 22:18 | -34.13056 | 150.76512 | 8698 ft | 323 kts | 62° |
| 2026-04-26 22:19 | -34.11981 | 150.78891 | 8407 ft | 322 kts | 62° |
| 2026-04-26 22:19 | -34.10909 | 150.81265 | 8106 ft | 320 kts | 62° |
| 2026-04-26 22:19 | -34.09846 | 150.83621 | 7809 ft | 317 kts | 62° |
| 2026-04-26 22:19 | -34.08816 | 150.85910 | 7513 ft | 310 kts | 62° |
| 2026-04-26 22:20 | -34.07794 | 150.88180 | 7285 ft | 303 kts | 62° |
| 2026-04-26 22:20 | -34.06799 | 150.90387 | 7047 ft | 296 kts | 62° |
| 2026-04-26 22:20 | -34.05822 | 150.92556 | 6807 ft | 290 kts | 61° |
| 2026-04-26 22:20 | -34.04863 | 150.94682 | 6571 ft | 284 kts | 62° |
| 2026-04-26 22:21 | -34.03938 | 150.96732 | 6324 ft | 279 kts | 62° |
| 2026-04-26 22:21 | -34.03014 | 150.98777 | 6087 ft | 273 kts | 63° |
| 2026-04-26 22:21 | -34.02485 | 151.00894 | 6024 ft | 259 kts | 92° |
| 2026-04-26 22:21 | -34.03014 | 151.02870 | 6021 ft | 243 kts | 128° |
| 2026-04-26 22:22 | -34.04235 | 151.04188 | 6024 ft | 230 kts | 143° |
| 2026-04-26 22:22 | -34.05483 | 151.05310 | 6022 ft | 225 kts | 142° |
| 2026-04-26 22:22 | -34.06699 | 151.06515 | 6040 ft | 223 kts | 139° |
| 2026-04-26 22:22 | -34.07938 | 151.07648 | 5898 ft | 225 kts | 153° |
| 2026-04-26 22:23 | -34.09438 | 151.08220 | 5693 ft | 225 kts | 166° |
| 2026-04-26 22:23 | -34.10956 | 151.08593 | 5501 ft | 225 kts | 169° |
| 2026-04-26 22:23 | -34.12496 | 151.08953 | 5310 ft | 225 kts | 168° |
| 2026-04-26 22:23 | -34.14027 | 151.09322 | 5113 ft | 223 kts | 168° |
| 2026-04-26 22:24 | -34.15557 | 151.09702 | 4907 ft | 223 kts | 168° |
| 2026-04-26 22:24 | -34.17078 | 151.10087 | 4697 ft | 223 kts | 167° |
| 2026-04-26 22:24 | -34.18598 | 151.10476 | 4503 ft | 222 kts | 167° |
| 2026-04-26 22:24 | -34.20091 | 151.10863 | 4302 ft | 223 kts | 167° |
| 2026-04-26 22:25 | -34.21609 | 151.11259 | 4101 ft | 223 kts | 166° |
| 2026-04-26 22:25 | -34.23130 | 151.11657 | 3902 ft | 223 kts | 166° |
| 2026-04-26 22:25 | -34.24654 | 151.12057 | 3701 ft | 223 kts | 167° |
| 2026-04-26 22:25 | -34.26179 | 151.12457 | 3502 ft | 224 kts | 166° |
| 2026-04-26 22:26 | -34.27702 | 151.12857 | 3296 ft | 224 kts | 166° |
| 2026-04-26 22:26 | -34.29203 | 151.13299 | 3102 ft | 224 kts | 157° |
| 2026-04-26 22:26 | -34.30414 | 151.14418 | 3028 ft | 220 kts | 122° |
| 2026-04-26 22:26 | -34.30886 | 151.16126 | 3019 ft | 214 kts | 88° |
| 2026-04-26 22:27 | -34.30480 | 151.17814 | 3017 ft | 210 kts | 55° |
| 2026-04-26 22:27 | -34.29493 | 151.19109 | 3019 ft | 210 kts | 37° |
| 2026-04-26 22:27 | -34.28226 | 151.19985 | 3022 ft | 210 kts | 25° |
| 2026-04-26 22:27 | -34.26849 | 151.20583 | 3021 ft | 211 kts | 11° |
| 2026-04-26 22:28 | -34.25406 | 151.20758 | 3023 ft | 211 kts | 3° |
| 2026-04-26 22:28 | -34.23932 | 151.20833 | 3021 ft | 212 kts | 3° |
| 2026-04-26 22:28 | -34.22452 | 151.20895 | 3022 ft | 211 kts | 2° |
| 2026-04-26 22:28 | -34.20984 | 151.20953 | 3024 ft | 211 kts | 2° |
| 2026-04-26 22:29 | -34.19541 | 151.21144 | 3023 ft | 211 kts | 11° |
| 2026-04-26 22:29 | -34.18102 | 151.21504 | 3022 ft | 211 kts | 13° |
| 2026-04-26 22:29 | -34.16665 | 151.21889 | 3020 ft | 212 kts | 13° |
| 2026-04-26 22:29 | -34.15228 | 151.22271 | 3018 ft | 210 kts | 13° |
| 2026-04-26 22:30 | -34.13774 | 151.22471 | 3020 ft | 211 kts | 359° |
| 2026-04-26 22:30 | -34.12353 | 151.22234 | 3018 ft | 199 kts | 349° |
| 2026-04-26 22:30 | -34.11073 | 151.21882 | 3005 ft | 183 kts | 348° |
| 2026-04-26 22:30 | -34.09847 | 151.21559 | 2786 ft | 178 kts | 349° |
| 2026-04-26 22:31 | -34.08649 | 151.21252 | 2518 ft | 171 kts | 349° |
| 2026-04-26 22:31 | -34.07528 | 151.20960 | 2294 ft | 159 kts | 349° |
| 2026-04-26 22:31 | -34.06461 | 151.20681 | 2078 ft | 156 kts | 348° |
| 2026-04-26 22:31 | -34.05407 | 151.20407 | 1858 ft | 153 kts | 348° |
| 2026-04-26 22:32 | -34.04393 | 151.20142 | 1661 ft | 149 kts | 348° |
| 2026-04-26 22:32 | -34.03375 | 151.19877 | 1453 ft | 149 kts | 348° |
| 2026-04-26 22:32 | -34.02358 | 151.19611 | 1252 ft | 150 kts | 347° |
| 2026-04-26 22:32 | -34.01345 | 151.19346 | 1038 ft | 151 kts | 345° |
| 2026-04-26 22:33 | -34.00319 | 151.19083 | 788 ft | 148 kts | 345° |
| 2026-04-26 22:33 | -33.98313 | 151.18548 | 400 ft | 149 kts | 347° |
| 2026-04-26 22:33 | -33.97307 | 151.18287 | 216 ft | 148 kts | 346° |
| 2026-04-26 22:34 | -33.96301 | 151.18032 | 54 ft | 147 kts | 346° |
| 2026-04-26 22:34 | -33.95403 | 151.17798 | 32 ft | 99 kts | 348° |
| 2026-04-26 22:34 | -33.94862 | 151.17657 | 33 ft | 70 kts | 348° |
| 2026-04-26 22:34 | -33.94507 | 151.17526 | 33 ft | 41 kts | 332° |
| 2026-04-26 22:35 | -33.94339 | 151.17372 | 34 ft | 13 kts | 317° |
| 2026-04-26 22:35 | -33.94276 | 151.17311 | 33 ft | 0 kts | 334° |
| 2026-04-26 22:36 | -33.94259 | 151.17303 | 33 ft | 6 kts | 336° |
| 2026-04-26 22:36 | -33.94208 | 151.17286 | 32 ft | 10 kts | 348° |
| 2026-04-26 22:37 | -33.94134 | 151.17267 | 32 ft | 11 kts | 348° |
| 2026-04-26 22:37 | -33.94057 | 151.17247 | 33 ft | 11 kts | 348° |
| 2026-04-26 22:37 | -33.93980 | 151.17228 | 33 ft | 12 kts | 348° |
| 2026-04-26 22:37 | -33.93895 | 151.17205 | 32 ft | 13 kts | 348° |
| 2026-04-26 22:38 | -33.93804 | 151.17182 | 32 ft | 14 kts | 348° |
| 2026-04-26 22:38 | -33.93709 | 151.17157 | 33 ft | 14 kts | 348° |
| 2026-04-26 22:38 | -33.93612 | 151.17132 | 33 ft | 14 kts | 348° |
| 2026-04-26 22:38 | -33.93512 | 151.17106 | 33 ft | 15 kts | 348° |
| 2026-04-26 22:39 | -33.93444 | 151.17149 | 32 ft | 4 kts | 77° |
| 2026-04-26 22:39 | -33.93441 | 151.17167 | 32 ft | 5 kts | 78° |
| 2026-04-26 22:39 | -33.93426 | 151.17239 | 31 ft | 12 kts | 76° |
| 2026-04-26 22:39 | -33.93407 | 151.17349 | 30 ft | 14 kts | 78° |
| 2026-04-26 22:40 | -33.93381 | 151.17465 | 33 ft | 14 kts | 59° |
| 2026-04-26 22:40 | -33.93299 | 151.17483 | 34 ft | 13 kts | 348° |
| 2026-04-26 22:40 | -33.93207 | 151.17459 | 33 ft | 15 kts | 348° |
| 2026-04-26 22:40 | -33.93106 | 151.17436 | 34 ft | 11 kts | 1° |
| 2026-04-26 22:41 | -33.93078 | 151.17470 | 34 ft | 6 kts | 62° |
| 2026-04-26 22:41 | -33.93054 | 151.17530 | 34 ft | 9 kts | 53° |
| 2026-04-26 22:41 | -33.93009 | 151.17584 | 34 ft | 10 kts | 70° |
| 2026-04-26 22:41 | -33.93019 | 151.17673 | 33 ft | 12 kts | 108° |
| 2026-04-26 22:42 | -33.93058 | 151.17772 | 34 ft | 13 kts | 104° |
| 2026-04-26 22:42 | -33.93075 | 151.17889 | 34 ft | 14 kts | 100° |
| 2026-04-26 22:42 | -33.93080 | 151.17914 | 34 ft | 2 kts | 108° |
| 2026-04-26 22:42 | -33.93096 | 151.17930 | 34 ft | 3 kts | 156° |
| 2026-04-26 22:43 | -33.93111 | 151.17928 | 34 ft | 2 kts | 186° |
| 2026-04-26 22:43 | -33.93131 | 151.17920 | 34 ft | 4 kts | 206° |
| 2026-04-26 22:43 | -33.93150 | 151.17914 | 34 ft | 1 kts | 191° |
| 2026-04-26 22:43 | -33.93157 | 151.17912 | 34 ft | 0 kts | 191° |